createdAt,value
2022-12-11T00:00:40.834Z,11.25
2022-12-11T00:03:12.892Z,11.35
2022-12-11T00:05:45.276Z,11.10
2022-12-11T00:08:14.061Z,11.07
2022-12-11T00:10:50.044Z,10.88
2022-12-11T00:13:17.982Z,10.55
2022-12-11T00:15:45.955Z,9.75
2022-12-11T00:18:15.219Z,10.38
2022-12-11T00:20:44.128Z,10.82
2022-12-11T00:23:12.427Z,11.02
2022-12-11T00:25:45.598Z,9.85
2022-12-11T00:28:18.949Z,10.00
2022-12-11T00:30:47.377Z,9.77
2022-12-11T00:33:16.039Z,9.32
2022-12-11T00:35:46.885Z,9.13
2022-12-11T00:38:21.777Z,8.63
2022-12-11T00:40:49.724Z,9.00
2022-12-11T00:43:18.028Z,9.27
2022-12-11T00:45:47.809Z,9.38
2022-12-11T00:48:16.003Z,9.55
2022-12-11T00:50:44.109Z,9.20
2022-12-11T00:53:12.076Z,8.73
2022-12-11T00:55:42.595Z,9.88
2022-12-11T00:58:12.285Z,8.60
2022-12-11T01:00:42.654Z,8.75
2022-12-11T01:03:13.581Z,8.38
2022-12-11T01:05:41.603Z,7.95
2022-12-11T01:08:09.620Z,8.40
2022-12-11T01:10:37.617Z,9.32
2022-12-11T01:13:07.700Z,8.45
2022-12-11T01:15:42.723Z,7.93
2022-12-11T01:18:13.941Z,9.13
2022-12-11T01:20:43.367Z,8.95
2022-12-11T01:23:14.063Z,7.18
2022-12-11T01:25:42.856Z,8.65
2022-12-11T01:28:11.096Z,8.18
2022-12-11T01:30:41.611Z,7.97
2022-12-11T01:33:10.327Z,8.30
2022-12-11T01:35:40.390Z,8.35
2022-12-11T01:38:09.993Z,8.30
2022-12-11T01:40:38.048Z,8.10
2022-12-11T01:43:06.021Z,8.65
2022-12-11T01:45:42.137Z,8.30
2022-12-11T01:48:27.599Z,9.55
2022-12-11T01:51:03.632Z,9.77
2022-12-11T01:53:37.147Z,8.57
2022-12-11T01:56:06.647Z,8.45
2022-12-11T01:58:42.043Z,8.77
2022-12-11T02:01:17.096Z,8.93
2022-12-11T02:03:45.136Z,9.32
2022-12-11T02:06:39.780Z,10.10
2022-12-11T02:09:13.803Z,8.68
2022-12-11T02:12:07.614Z,9.95
2022-12-11T02:15:40.173Z,9.73
2022-12-11T02:20:55.710Z,9.10
2022-12-11T02:24:08.577Z,9.20
2022-12-11T02:27:06.723Z,8.60
2022-12-11T02:29:44.423Z,8.57
2022-12-11T02:32:47.047Z,8.45
2022-12-11T02:35:38.376Z,8.13
2022-12-11T02:38:33.898Z,9.45
2022-12-11T02:41:05.481Z,8.15
2022-12-11T02:46:06.539Z,8.82
2022-12-11T02:48:36.506Z,8.63
2022-12-11T02:51:06.679Z,9.05
2022-12-11T02:53:40.174Z,8.43
2022-12-11T02:56:22.657Z,8.75
2022-12-11T02:59:00.664Z,8.25
2022-12-11T03:01:28.936Z,9.43
2022-12-11T03:03:58.381Z,8.50
2022-12-11T03:06:41.230Z,7.40
2022-12-11T03:09:09.390Z,8.32
2022-12-11T03:11:37.324Z,9.00
2022-12-11T03:14:06.404Z,8.07
2022-12-11T03:16:55.677Z,9.00
2022-12-11T03:19:29.778Z,8.95
2022-12-11T03:22:05.086Z,8.52
2022-12-11T03:24:51.224Z,8.30
2022-12-11T03:27:42.573Z,10.00
2022-12-11T03:30:18.059Z,8.23
2022-12-11T03:33:13.992Z,8.85
2022-12-11T03:35:52.086Z,9.05
2022-12-11T03:38:53.949Z,8.38
2022-12-11T03:41:26.193Z,7.78
2022-12-11T03:43:58.539Z,8.40
2022-12-11T03:46:33.636Z,8.48
2022-12-11T03:49:16.700Z,8.48
2022-12-11T03:51:49.529Z,8.35
2022-12-11T03:54:19.076Z,8.30
2022-12-11T03:56:49.104Z,8.30
2022-12-11T03:59:17.125Z,8.20
2022-12-11T04:01:45.041Z,8.00
2022-12-11T04:04:13.081Z,8.00
2022-12-11T04:06:41.095Z,7.80
2022-12-11T04:09:09.130Z,7.00
2022-12-11T04:11:37.048Z,8.30
2022-12-11T04:14:27.614Z,7.65
2022-12-11T04:16:57.731Z,7.55
2022-12-11T04:20:04.970Z,8.23
2022-12-11T04:22:38.935Z,8.00
2022-12-11T04:25:09.116Z,7.75
2022-12-11T04:27:49.297Z,7.53
2022-12-11T04:30:30.813Z,7.05
2022-12-11T04:33:02.207Z,7.55
2022-12-11T04:35:30.298Z,8.15
2022-12-11T04:37:58.675Z,7.25
2022-12-11T04:40:26.930Z,7.80
2022-12-11T04:42:55.325Z,7.78
2022-12-11T04:45:23.622Z,7.65
2022-12-11T04:47:51.771Z,7.25
2022-12-11T04:50:20.110Z,7.25
2022-12-11T04:52:48.110Z,8.45
2022-12-11T04:55:16.130Z,8.07
2022-12-11T04:57:44.238Z,7.07
2022-12-11T05:00:13.301Z,8.07
2022-12-11T05:02:42.624Z,5.80
2022-12-11T05:05:12.490Z,7.93
2022-12-11T05:07:41.145Z,7.28
2022-12-11T05:10:09.717Z,6.93
2022-12-11T05:12:37.682Z,8.02
2022-12-11T05:15:06.439Z,8.27
2022-12-11T05:17:34.760Z,6.90
2022-12-11T05:20:02.995Z,7.35
2022-12-11T05:22:32.055Z,7.93
2022-12-11T05:25:00.280Z,8.23
2022-12-11T05:27:29.126Z,7.22
2022-12-11T05:29:59.621Z,7.70
2022-12-11T05:32:28.556Z,6.80
2022-12-11T05:34:59.632Z,7.45
2022-12-11T05:37:27.799Z,7.10
2022-12-11T05:39:56.793Z,7.32
2022-12-11T05:42:28.775Z,6.93
2022-12-11T05:45:00.012Z,6.78
2022-12-11T05:47:28.462Z,6.50
2022-12-11T05:49:56.872Z,7.03
2022-12-11T05:52:24.989Z,6.88
2022-12-11T05:54:53.104Z,6.43
2022-12-11T05:57:21.110Z,6.40
2022-12-11T05:59:49.323Z,7.05
2022-12-11T06:02:17.543Z,7.93
2022-12-11T06:04:45.571Z,8.55
2022-12-11T06:07:13.993Z,7.38
2022-12-11T06:09:42.080Z,6.90
2022-12-11T06:12:10.065Z,6.38
2022-12-11T06:14:38.137Z,7.40
2022-12-11T06:17:06.304Z,8.55
2022-12-11T06:19:36.973Z,6.25
2022-12-11T06:22:05.674Z,7.60
2022-12-11T06:24:33.930Z,7.45
2022-12-11T06:27:01.912Z,6.65
2022-12-11T06:29:29.959Z,7.43
2022-12-11T06:31:59.620Z,8.13
2022-12-11T06:34:28.094Z,8.60
2022-12-11T06:36:57.010Z,7.10
2022-12-11T06:39:25.020Z,6.30
2022-12-11T06:41:53.044Z,7.88
2022-12-11T06:44:21.331Z,6.40
2022-12-11T06:46:49.312Z,7.35
2022-12-11T06:49:17.460Z,6.63
2022-12-11T06:51:45.586Z,7.10
2022-12-11T06:54:14.168Z,6.72
2022-12-11T06:56:42.771Z,6.47
2022-12-11T06:59:14.294Z,7.82
2022-12-11T07:01:42.480Z,7.43
2022-12-11T07:04:10.615Z,6.80
2022-12-11T07:06:40.106Z,6.53
2022-12-11T07:09:08.210Z,6.38
2022-12-11T07:11:36.713Z,6.00
2022-12-11T07:14:04.913Z,6.30
2022-12-11T07:16:33.191Z,6.80
2022-12-11T07:19:01.250Z,7.45
2022-12-11T07:21:29.620Z,6.35
2022-12-11T07:23:58.125Z,7.03
2022-12-11T07:26:26.735Z,6.88
2022-12-11T07:28:59.141Z,7.03
2022-12-11T07:31:29.798Z,5.32
2022-12-11T07:34:06.777Z,7.17
2022-12-11T07:36:35.121Z,6.63
2022-12-11T07:39:03.533Z,5.70
2022-12-11T07:41:32.132Z,6.03
2022-12-11T07:44:02.121Z,7.22
2022-12-11T07:46:33.103Z,5.82
2022-12-11T07:49:01.354Z,6.55
2022-12-11T07:51:32.321Z,6.07
2022-12-11T07:54:09.335Z,5.93
2022-12-11T07:56:37.831Z,6.85
2022-12-11T07:59:06.681Z,6.88
2022-12-11T08:01:38.159Z,7.65
2022-12-11T08:04:11.953Z,5.90
2022-12-11T08:06:40.705Z,6.68
2022-12-11T08:09:17.443Z,8.07
2022-12-11T08:11:52.078Z,7.15
2022-12-11T08:14:21.164Z,7.35
2022-12-11T08:16:49.480Z,6.70
2022-12-11T08:19:18.235Z,8.13
2022-12-11T08:21:46.954Z,6.75
2022-12-11T08:24:16.605Z,5.93
2022-12-11T08:26:46.610Z,6.00
2022-12-11T08:29:15.153Z,6.50
2022-12-11T08:31:43.389Z,6.40
2022-12-11T08:34:14.037Z,7.55
2022-12-11T08:36:42.685Z,7.65
2022-12-11T08:39:10.951Z,6.63
2022-12-11T08:41:39.600Z,6.22
2022-12-11T08:44:16.529Z,6.38
2022-12-11T08:46:46.444Z,7.00
2022-12-11T08:49:14.603Z,6.75
2022-12-11T08:51:43.173Z,6.75
2022-12-11T08:54:11.890Z,6.60
2022-12-11T08:56:39.880Z,6.93
2022-12-11T08:59:07.798Z,6.28
2022-12-11T09:01:36.105Z,6.85
2022-12-11T09:04:04.384Z,7.32
2022-12-11T09:06:33.603Z,8.18
2022-12-11T09:09:04.113Z,6.22
2022-12-11T09:11:35.527Z,7.35
2022-12-11T09:14:07.708Z,7.10
2022-12-11T09:16:40.892Z,7.85
2022-12-11T09:19:17.939Z,7.63
2022-12-11T09:21:46.247Z,7.03
2022-12-11T09:24:15.694Z,6.43
2022-12-11T09:26:44.055Z,6.88
2022-12-11T09:29:13.320Z,7.30
2022-12-11T09:31:41.934Z,6.78
2022-12-11T09:34:13.927Z,7.07
2022-12-11T09:36:44.438Z,7.40
2022-12-11T09:39:15.159Z,6.65
2022-12-11T09:42:13.996Z,7.40
2022-12-11T09:44:55.658Z,7.53
2022-12-11T09:47:50.648Z,6.97
2022-12-11T09:50:33.366Z,7.30
2022-12-11T09:53:30.972Z,7.28
2022-12-11T09:56:33.321Z,6.95
2022-12-11T09:59:47.606Z,7.30
2022-12-11T10:02:42.636Z,6.20
2022-12-11T10:05:45.835Z,7.57
2022-12-11T10:08:38.308Z,6.40
2022-12-11T10:11:27.552Z,7.20
2022-12-11T10:14:21.519Z,7.15
2022-12-11T10:17:09.813Z,6.93
2022-12-11T10:19:38.574Z,6.65
2022-12-11T10:22:23.654Z,8.00
2022-12-11T10:25:11.128Z,8.18
2022-12-11T10:27:41.746Z,9.50
2022-12-11T10:30:21.715Z,9.43
2022-12-11T10:33:11.617Z,8.80
2022-12-11T10:35:51.796Z,7.95
2022-12-11T10:38:33.586Z,7.72
2022-12-11T10:43:44.375Z,7.93
2022-12-11T10:46:21.056Z,7.65
2022-12-11T10:48:55.391Z,7.68
2022-12-11T10:51:32.210Z,7.80
2022-12-11T10:54:30.106Z,8.77
2022-12-11T10:56:59.344Z,8.23
2022-12-11T10:59:48.308Z,8.68
2022-12-11T11:02:26.455Z,6.47
2022-12-11T11:04:57.350Z,9.23
2022-12-11T11:07:31.493Z,8.60
2022-12-11T11:10:12.034Z,8.63
2022-12-11T11:12:44.872Z,7.70
2022-12-11T11:15:16.745Z,7.57
2022-12-11T11:17:54.686Z,8.60
2022-12-11T11:20:30.437Z,8.07
2022-12-11T11:23:05.169Z,7.50
2022-12-11T11:25:34.550Z,8.35
2022-12-11T11:28:06.955Z,7.43
2022-12-11T11:30:39.828Z,8.55
2022-12-11T11:33:18.696Z,8.05
2022-12-11T11:36:03.651Z,7.53
2022-12-11T11:38:50.264Z,7.78
2022-12-11T11:42:01.833Z,7.45
2022-12-11T11:44:48.988Z,8.80
2022-12-11T11:47:31.575Z,9.27
2022-12-11T11:50:25.655Z,7.93
2022-12-11T11:53:37.526Z,7.95
2022-12-11T11:56:28.980Z,8.38
2022-12-11T11:59:40.464Z,8.55
2022-12-11T12:02:16.990Z,8.73
2022-12-11T12:04:46.900Z,7.90
2022-12-11T12:07:40.112Z,9.27
2022-12-11T12:10:14.071Z,9.93
2022-12-11T12:13:30.085Z,10.85
2022-12-11T12:16:02.186Z,10.60
2022-12-11T12:19:03.216Z,11.20
2022-12-11T12:21:39.611Z,11.77
2022-12-11T12:24:26.202Z,12.80
2022-12-11T12:27:55.296Z,11.18
2022-12-11T12:30:24.194Z,11.45
2022-12-11T12:33:36.519Z,9.73
2022-12-11T12:36:13.622Z,10.70
2022-12-11T12:38:41.738Z,11.13
2022-12-11T12:41:29.464Z,10.90
2022-12-11T12:44:11.119Z,8.50
2022-12-11T12:46:58.989Z,10.30
2022-12-11T12:49:51.242Z,11.85
2022-12-11T12:52:33.297Z,10.63
2022-12-11T12:55:23.261Z,11.25
2022-12-11T12:58:01.318Z,10.57
2022-12-11T13:00:40.315Z,10.80
2022-12-11T13:03:21.912Z,11.07
2022-12-11T13:06:02.297Z,10.90
2022-12-11T13:08:48.842Z,11.30
2022-12-11T13:11:20.230Z,9.23
2022-12-11T13:14:09.085Z,12.20
2022-12-11T13:16:42.197Z,10.40
2022-12-11T13:19:27.768Z,10.10
2022-12-11T13:22:15.030Z,9.20
2022-12-11T13:24:52.306Z,9.40
2022-12-11T13:27:27.218Z,10.10
2022-12-11T13:30:08.342Z,9.88
2022-12-11T13:32:37.725Z,11.75
2022-12-11T13:35:08.196Z,10.43
2022-12-11T13:37:48.517Z,20.40
2022-12-11T13:40:26.189Z,8.52
2022-12-11T13:43:07.220Z,14.48
2022-12-11T13:45:48.579Z,13.02
2022-12-11T13:48:54.568Z,13.88
2022-12-11T13:51:26.066Z,11.70
2022-12-11T13:54:18.761Z,9.63
2022-12-11T13:56:57.401Z,8.50
2022-12-11T13:59:41.826Z,9.73
2022-12-11T14:02:28.255Z,8.70
2022-12-11T14:05:03.031Z,8.77
2022-12-11T14:07:39.058Z,9.32
2022-12-11T14:10:30.251Z,8.00
2022-12-11T14:13:22.318Z,8.13
2022-12-11T14:18:27.787Z,10.57
2022-12-11T14:21:04.562Z,12.38
2022-12-11T14:23:36.449Z,11.23
2022-12-11T14:26:24.726Z,10.05
2022-12-11T14:28:54.660Z,9.98
2022-12-11T14:31:36.713Z,12.80
2022-12-11T14:34:21.367Z,9.65
2022-12-11T14:36:51.033Z,12.52
2022-12-11T14:39:35.330Z,11.88
2022-12-11T14:42:43.965Z,11.15
2022-12-11T14:45:25.664Z,11.43
2022-12-11T14:47:55.968Z,12.05
2022-12-11T14:50:43.826Z,11.90
2022-12-11T14:53:32.173Z,12.63
2022-12-11T14:56:07.622Z,11.48
2022-12-11T14:58:47.722Z,13.05
2022-12-11T15:01:36.403Z,12.07
2022-12-11T15:04:16.703Z,15.10
2022-12-11T15:06:48.470Z,16.92
2022-12-11T15:09:26.660Z,13.32
2022-12-11T15:12:07.583Z,9.48
2022-12-11T15:14:36.197Z,13.13
2022-12-11T15:17:04.464Z,13.80
2022-12-11T15:19:35.109Z,14.32
2022-12-11T15:22:07.094Z,13.32
2022-12-11T15:24:42.856Z,10.93
2022-12-11T15:27:38.979Z,13.02
2022-12-11T15:30:29.256Z,12.35
2022-12-11T15:33:12.516Z,11.18
2022-12-11T15:35:59.440Z,12.25
2022-12-11T15:38:38.018Z,12.13
2022-12-11T15:41:14.120Z,10.20
2022-12-11T15:43:43.981Z,12.43
2022-12-11T15:46:13.121Z,15.05
2022-12-11T15:48:41.399Z,22.10
2022-12-11T15:51:10.919Z,10.23
2022-12-11T15:53:40.374Z,12.38
2022-12-11T15:56:17.348Z,11.43
2022-12-11T15:58:47.825Z,12.05
2022-12-11T16:01:16.086Z,12.52
2022-12-11T16:03:44.268Z,16.73
2022-12-11T16:06:14.098Z,26.58
2022-12-11T16:08:42.409Z,18.83
2022-12-11T16:11:15.995Z,18.17
2022-12-11T16:13:45.465Z,17.15
2022-12-11T16:16:13.521Z,12.80
2022-12-11T16:18:41.863Z,16.88
2022-12-11T16:21:10.024Z,16.00
2022-12-11T16:23:38.438Z,16.58
2022-12-11T16:26:10.148Z,14.68
2022-12-11T16:31:15.951Z,16.95
2022-12-11T16:33:44.675Z,19.95
2022-12-11T16:36:18.994Z,13.90
2022-12-11T16:38:53.480Z,13.98
2022-12-11T16:41:23.902Z,15.13
2022-12-11T16:43:53.822Z,12.48
2022-12-11T16:46:24.954Z,15.35
2022-12-11T16:48:56.150Z,17.92
2022-12-11T16:51:26.204Z,15.35
2022-12-11T16:53:57.608Z,15.55
2022-12-11T16:56:26.866Z,14.88
2022-12-11T16:58:56.267Z,15.82
2022-12-11T17:01:35.233Z,14.40
2022-12-11T17:04:06.109Z,15.15
2022-12-11T17:06:36.153Z,13.15
2022-12-11T17:09:07.257Z,13.95
2022-12-11T17:11:37.091Z,13.90
2022-12-11T17:14:07.733Z,13.65
2022-12-11T17:16:38.681Z,14.35
2022-12-11T17:19:07.936Z,14.35
2022-12-11T17:21:36.118Z,16.98
2022-12-11T17:24:04.789Z,17.70
2022-12-11T17:26:34.423Z,18.33
2022-12-11T17:29:03.636Z,14.15
2022-12-11T17:31:32.075Z,14.57
2022-12-11T17:34:01.104Z,14.23
2022-12-11T17:36:29.415Z,15.75
2022-12-11T17:38:58.703Z,15.50
2022-12-11T17:41:27.028Z,14.43
2022-12-11T17:43:56.489Z,15.38
2022-12-11T17:46:25.209Z,14.98
2022-12-11T17:48:53.883Z,14.70
2022-12-11T17:51:25.080Z,14.93
2022-12-11T17:53:57.279Z,16.10
2022-12-11T17:56:25.978Z,18.27
2022-12-11T17:58:54.621Z,12.05
2022-12-11T18:01:22.927Z,16.45
2022-12-11T18:03:51.171Z,16.88
2022-12-11T18:06:19.525Z,13.77
2022-12-11T18:08:48.142Z,11.75
2022-12-11T18:11:19.746Z,15.93
2022-12-11T18:13:49.138Z,9.80
2022-12-11T18:16:28.050Z,11.98
2022-12-11T18:18:57.073Z,13.98
2022-12-11T18:21:32.226Z,14.57
2022-12-11T18:24:02.046Z,13.80
2022-12-11T18:26:30.241Z,17.20
2022-12-11T18:28:58.364Z,12.48
2022-12-11T18:31:26.790Z,14.48
2022-12-11T18:33:55.658Z,13.38
2022-12-11T18:36:23.973Z,13.13
2022-12-11T18:38:52.210Z,14.45
2022-12-11T18:41:21.709Z,17.02
2022-12-11T18:43:49.874Z,14.23
2022-12-11T18:46:21.409Z,11.25
2022-12-11T18:48:50.853Z,12.23
2022-12-11T18:51:26.129Z,14.82
2022-12-11T18:53:54.367Z,13.20
2022-12-11T18:56:23.311Z,12.52
2022-12-11T18:58:52.533Z,13.77
2022-12-11T19:01:27.252Z,13.93
2022-12-11T19:04:04.202Z,11.50
2022-12-11T19:06:35.860Z,13.68
2022-12-11T19:09:06.900Z,14.32
2022-12-11T19:11:38.574Z,14.32
2022-12-11T19:16:40.105Z,9.27
2022-12-11T19:19:13.711Z,12.23
2022-12-11T19:21:43.022Z,11.23
2022-12-11T19:24:18.142Z,14.32
2022-12-11T19:26:49.772Z,12.73
2022-12-11T19:29:29.360Z,14.30
2022-12-11T19:31:57.720Z,11.90
2022-12-11T19:34:26.121Z,11.68
2022-12-11T19:36:54.163Z,11.93
2022-12-11T19:39:22.602Z,14.70
2022-12-11T19:41:50.894Z,12.57
2022-12-11T19:44:19.260Z,13.50
2022-12-11T19:46:47.944Z,11.90
2022-12-11T19:49:16.459Z,11.50
2022-12-11T19:51:45.155Z,13.52
2022-12-11T19:54:16.409Z,11.20
2022-12-11T19:56:45.897Z,15.43
2022-12-11T19:59:18.655Z,8.60
2022-12-11T20:01:50.720Z,11.90
2022-12-11T20:04:20.669Z,12.73
2022-12-11T20:06:49.362Z,11.98
2022-12-11T20:09:18.399Z,11.82
2022-12-11T20:11:48.350Z,12.60
2022-12-11T20:14:25.656Z,10.25
2022-12-11T20:17:13.787Z,12.52
2022-12-11T20:19:43.188Z,11.27
2022-12-11T20:22:11.891Z,9.63
2022-12-11T20:24:40.321Z,9.85
2022-12-11T20:27:09.855Z,12.57
2022-12-11T20:29:39.324Z,10.13
2022-12-11T20:32:07.712Z,9.82
2022-12-11T20:34:40.411Z,14.15
2022-12-11T20:37:09.732Z,14.85
2022-12-11T20:39:38.486Z,17.30
2022-12-11T20:42:09.790Z,15.07
2022-12-11T20:44:40.725Z,9.95
2022-12-11T20:47:13.360Z,13.13
2022-12-11T20:49:41.707Z,13.60
2022-12-11T20:52:09.950Z,13.15
2022-12-11T20:54:38.512Z,9.73
2022-12-11T20:57:07.513Z,11.27
2022-12-11T20:59:36.876Z,11.70
2022-12-11T21:02:05.803Z,10.25
2022-12-11T21:04:34.624Z,10.27
2022-12-11T21:07:02.936Z,11.77
2022-12-11T21:09:31.467Z,13.93
2022-12-11T21:12:01.095Z,12.02
2022-12-11T21:14:30.309Z,14.70
2022-12-11T21:16:59.974Z,13.98
2022-12-11T21:19:30.658Z,12.68
2022-12-11T21:21:58.904Z,16.57
2022-12-11T21:24:30.083Z,13.65
2022-12-11T21:26:59.342Z,17.00
2022-12-11T21:29:29.609Z,11.30
2022-12-11T21:31:58.349Z,10.80
2022-12-11T21:34:26.902Z,13.13
2022-12-11T21:36:57.396Z,11.52
2022-12-11T21:39:29.247Z,9.57
2022-12-11T21:41:58.481Z,12.18
2022-12-11T21:47:14.900Z,11.50
2022-12-11T21:49:43.074Z,14.75
2022-12-11T21:52:11.563Z,12.50
2022-12-11T21:54:39.881Z,13.52
2022-12-11T21:57:08.113Z,10.95
2022-12-11T21:59:36.040Z,11.50
2022-12-11T22:02:04.425Z,14.38
2022-12-11T22:04:32.523Z,13.93
2022-12-11T22:07:00.481Z,11.80
2022-12-11T22:09:28.542Z,12.85
2022-12-11T22:11:58.823Z,13.85
2022-12-11T22:14:27.792Z,11.50
2022-12-11T22:16:56.085Z,13.45
2022-12-11T22:19:27.830Z,11.70
2022-12-11T22:22:00.821Z,11.75
2022-12-11T22:24:28.862Z,11.43
2022-12-11T22:26:57.147Z,12.60
2022-12-11T22:29:25.444Z,12.35
2022-12-11T22:31:54.654Z,11.00
2022-12-11T22:34:22.817Z,13.00
2022-12-11T22:36:51.321Z,12.57
2022-12-11T22:39:19.289Z,13.77
2022-12-11T22:41:47.348Z,10.35
2022-12-11T22:44:21.530Z,11.13
2022-12-11T22:46:50.632Z,11.77
2022-12-11T22:49:20.511Z,12.13
2022-12-11T22:51:49.623Z,10.60
2022-12-11T22:54:17.706Z,10.50
2022-12-11T22:56:45.852Z,13.75
2022-12-11T22:59:13.918Z,11.23
2022-12-11T23:01:42.263Z,11.27
2022-12-11T23:04:10.261Z,10.82
2022-12-11T23:06:39.320Z,10.73
2022-12-11T23:09:07.453Z,11.98
2022-12-11T23:11:38.473Z,10.80
2022-12-11T23:14:14.396Z,10.65
2022-12-11T23:16:43.364Z,10.57
2022-12-11T23:19:12.683Z,11.18
2022-12-11T23:21:41.231Z,11.35
2022-12-11T23:24:11.164Z,11.20
2022-12-11T23:26:40.077Z,12.65
2022-12-11T23:29:08.438Z,12.38
2022-12-11T23:31:36.753Z,9.20
2022-12-11T23:34:05.132Z,10.65
2022-12-11T23:36:34.496Z,11.00
2022-12-11T23:39:02.532Z,11.35
2022-12-11T23:41:30.371Z,12.05
2022-12-11T23:43:58.442Z,13.70
2022-12-11T23:46:26.691Z,12.65
2022-12-11T23:48:56.035Z,13.18
2022-12-11T23:51:26.333Z,14.70
2022-12-11T23:53:54.838Z,12.27
2022-12-11T23:56:27.534Z,12.70
2022-12-11T23:58:56.724Z,13.60
